sensor_id;sensor_type;location;lat;lon;timestamp;temperature;humidity
728;DHT22;347;48.780;9.158;2023-02-26T00:00:03;6.10;19.90
728;DHT22;347;48.780;9.158;2023-02-26T00:02:32;6.10;19.90
728;DHT22;347;48.780;9.158;2023-02-26T00:04:58;6.00;20.20
728;DHT22;347;48.780;9.158;2023-02-26T00:07:24;6.00;19.80
728;DHT22;347;48.780;9.158;2023-02-26T00:09:51;6.00;20.00
728;DHT22;347;48.780;9.158;2023-02-26T00:12:17;5.90;20.10
728;DHT22;347;48.780;9.158;2023-02-26T00:14:43;5.90;20.00
728;DHT22;347;48.780;9.158;2023-02-26T00:19:40;5.80;20.40
728;DHT22;347;48.780;9.158;2023-02-26T00:22:06;5.70;20.90
728;DHT22;347;48.780;9.158;2023-02-26T00:24:32;5.80;20.60
728;DHT22;347;48.780;9.158;2023-02-26T00:26:58;5.90;20.50
728;DHT22;347;48.780;9.158;2023-02-26T00:29:25;5.80;19.50
728;DHT22;347;48.780;9.158;2023-02-26T00:31:51;5.80;20.10
728;DHT22;347;48.780;9.158;2023-02-26T00:34:16;5.80;19.70
728;DHT22;347;48.780;9.158;2023-02-26T00:37:04;5.80;19.90
728;DHT22;347;48.780;9.158;2023-02-26T00:42:03;5.80;19.60
728;DHT22;347;48.780;9.158;2023-02-26T00:44:29;5.70;19.60
728;DHT22;347;48.780;9.158;2023-02-26T00:47:02;5.70;20.00
728;DHT22;347;48.780;9.158;2023-02-26T00:55:04;5.60;20.20
728;DHT22;347;48.780;9.158;2023-02-26T00:57:30;5.60;20.10
728;DHT22;347;48.780;9.158;2023-02-26T00:59:56;5.60;20.00
728;DHT22;347;48.780;9.158;2023-02-26T01:02:21;5.60;20.10
728;DHT22;347;48.780;9.158;2023-02-26T01:04:47;5.60;20.10
728;DHT22;347;48.780;9.158;2023-02-26T01:07:13;5.60;19.90
728;DHT22;347;48.780;9.158;2023-02-26T01:09:39;5.60;20.20
728;DHT22;347;48.780;9.158;2023-02-26T01:12:08;5.60;19.70
728;DHT22;347;48.780;9.158;2023-02-26T01:14:34;5.60;19.50
728;DHT22;347;48.780;9.158;2023-02-26T01:20:07;5.50;20.10
728;DHT22;347;48.780;9.158;2023-02-26T01:25:12;5.40;19.80
728;DHT22;347;48.780;9.158;2023-02-26T01:27:39;5.50;19.80
728;DHT22;347;48.780;9.158;2023-02-26T01:30:07;5.40;19.50
728;DHT22;347;48.780;9.158;2023-02-26T01:46:15;5.20;19.80
728;DHT22;347;48.780;9.158;2023-02-26T01:51:11;5.30;19.50
728;DHT22;347;48.780;9.158;2023-02-26T01:53:36;5.30;19.40
728;DHT22;347;48.780;9.158;2023-02-26T01:56:08;5.30;19.50
728;DHT22;347;48.780;9.158;2023-02-26T01:58:36;5.30;19.60
728;DHT22;347;48.780;9.158;2023-02-26T02:01:02;5.20;19.50
728;DHT22;347;48.780;9.158;2023-02-26T02:03:31;5.20;19.50
728;DHT22;347;48.780;9.158;2023-02-26T02:06:05;5.20;19.50
728;DHT22;347;48.780;9.158;2023-02-26T02:08:32;5.20;19.70
728;DHT22;347;48.780;9.158;2023-02-26T02:11:01;5.20;19.60
728;DHT22;347;48.780;9.158;2023-02-26T02:36:42;5.30;19.20
728;DHT22;347;48.780;9.158;2023-02-26T02:39:14;5.30;19.60
728;DHT22;347;48.780;9.158;2023-02-26T02:42:21;5.40;19.40
728;DHT22;347;48.780;9.158;2023-02-26T02:45:04;5.40;19.30
728;DHT22;347;48.780;9.158;2023-02-26T02:47:34;5.40;19.00
728;DHT22;347;48.780;9.158;2023-02-26T02:50:06;5.30;18.90
728;DHT22;347;48.780;9.158;2023-02-26T02:55:13;5.20;19.00
728;DHT22;347;48.780;9.158;2023-02-26T02:57:51;5.20;18.90
728;DHT22;347;48.780;9.158;2023-02-26T03:00:20;5.20;19.20
728;DHT22;347;48.780;9.158;2023-02-26T03:03:05;5.20;19.00
728;DHT22;347;48.780;9.158;2023-02-26T03:05:33;5.10;18.90
728;DHT22;347;48.780;9.158;2023-02-26T03:08:09;5.10;19.10
728;DHT22;347;48.780;9.158;2023-02-26T03:10:47;5.00;19.20
728;DHT22;347;48.780;9.158;2023-02-26T03:13:18;5.00;19.40
728;DHT22;347;48.780;9.158;2023-02-26T03:26:51;4.90;19.60
728;DHT22;347;48.780;9.158;2023-02-26T03:29:39;5.00;19.50
728;DHT22;347;48.780;9.158;2023-02-26T03:32:13;5.10;19.60
728;DHT22;347;48.780;9.158;2023-02-26T03:34:59;5.00;19.40
728;DHT22;347;48.780;9.158;2023-02-26T03:37:40;5.10;19.30
728;DHT22;347;48.780;9.158;2023-02-26T03:40:21;5.00;19.20
728;DHT22;347;48.780;9.158;2023-02-26T03:43:04;5.00;19.40
728;DHT22;347;48.780;9.158;2023-02-26T03:45:34;4.80;20.00
728;DHT22;347;48.780;9.158;2023-02-26T03:48:01;4.70;20.60
728;DHT22;347;48.780;9.158;2023-02-26T03:53:01;4.90;19.90
728;DHT22;347;48.780;9.158;2023-02-26T03:55:48;5.00;20.00
728;DHT22;347;48.780;9.158;2023-02-26T03:58:14;5.10;19.70
728;DHT22;347;48.780;9.158;2023-02-26T04:00:41;5.10;19.40
728;DHT22;347;48.780;9.158;2023-02-26T04:03:27;5.10;19.20
728;DHT22;347;48.780;9.158;2023-02-26T04:05:54;5.00;20.30
728;DHT22;347;48.780;9.158;2023-02-26T04:08:21;4.90;19.80
728;DHT22;347;48.780;9.158;2023-02-26T04:11:09;4.80;21.20
728;DHT22;347;48.780;9.158;2023-02-26T04:13:35;4.90;20.10
728;DHT22;347;48.780;9.158;2023-02-26T04:16:01;5.00;19.80
728;DHT22;347;48.780;9.158;2023-02-26T04:18:27;4.90;19.70
728;DHT22;347;48.780;9.158;2023-02-26T04:20:52;4.90;20.00
728;DHT22;347;48.780;9.158;2023-02-26T04:23:18;4.90;20.40
728;DHT22;347;48.780;9.158;2023-02-26T04:25:44;4.90;20.00
728;DHT22;347;48.780;9.158;2023-02-26T04:28:10;4.90;20.20
728;DHT22;347;48.780;9.158;2023-02-26T04:30:36;4.90;20.10
728;DHT22;347;48.780;9.158;2023-02-26T04:33:02;4.90;20.10
728;DHT22;347;48.780;9.158;2023-02-26T04:35:27;4.80;20.70
728;DHT22;347;48.780;9.158;2023-02-26T04:37:53;4.90;20.20
728;DHT22;347;48.780;9.158;2023-02-26T04:40:19;4.90;19.50
728;DHT22;347;48.780;9.158;2023-02-26T04:42:44;4.90;19.70
728;DHT22;347;48.780;9.158;2023-02-26T04:45:10;4.90;19.70
728;DHT22;347;48.780;9.158;2023-02-26T04:47:36;4.90;19.70
728;DHT22;347;48.780;9.158;2023-02-26T04:50:02;4.90;19.70
728;DHT22;347;48.780;9.158;2023-02-26T04:52:27;4.90;19.80
728;DHT22;347;48.780;9.158;2023-02-26T04:54:53;4.90;19.70
728;DHT22;347;48.780;9.158;2023-02-26T04:57:19;4.90;20.00
728;DHT22;347;48.780;9.158;2023-02-26T04:59:44;4.90;19.70
728;DHT22;347;48.780;9.158;2023-02-26T05:02:10;4.90;19.50
728;DHT22;347;48.780;9.158;2023-02-26T05:04:35;4.90;19.70
728;DHT22;347;48.780;9.158;2023-02-26T05:07:01;4.80;19.80
728;DHT22;347;48.780;9.158;2023-02-26T05:09:27;4.70;20.00
728;DHT22;347;48.780;9.158;2023-02-26T05:11:52;4.70;19.90
728;DHT22;347;48.780;9.158;2023-02-26T05:14:18;4.70;20.20
728;DHT22;347;48.780;9.158;2023-02-26T05:16:44;4.60;20.50
728;DHT22;347;48.780;9.158;2023-02-26T05:19:09;4.70;20.00
728;DHT22;347;48.780;9.158;2023-02-26T05:21:35;4.70;20.00
728;DHT22;347;48.780;9.158;2023-02-26T05:24:01;4.70;20.30
728;DHT22;347;48.780;9.158;2023-02-26T05:26:27;4.80;19.90
728;DHT22;347;48.780;9.158;2023-02-26T05:28:52;4.70;20.10
728;DHT22;347;48.780;9.158;2023-02-26T05:31:18;4.80;19.80
728;DHT22;347;48.780;9.158;2023-02-26T05:33:44;4.70;20.00
728;DHT22;347;48.780;9.158;2023-02-26T05:36:11;4.70;19.90
728;DHT22;347;48.780;9.158;2023-02-26T05:38:36;4.70;20.00
728;DHT22;347;48.780;9.158;2023-02-26T05:41:02;4.70;20.10
728;DHT22;347;48.780;9.158;2023-02-26T05:43:28;4.70;20.10
728;DHT22;347;48.780;9.158;2023-02-26T05:45:54;4.60;20.10
728;DHT22;347;48.780;9.158;2023-02-26T05:48:20;4.70;20.10
728;DHT22;347;48.780;9.158;2023-02-26T05:50:48;4.70;20.10
728;DHT22;347;48.780;9.158;2023-02-26T05:53:14;4.70;20.10
728;DHT22;347;48.780;9.158;2023-02-26T05:55:40;4.70;20.00
728;DHT22;347;48.780;9.158;2023-02-26T05:58:05;4.70;20.40
728;DHT22;347;48.780;9.158;2023-02-26T06:00:31;4.70;20.20
728;DHT22;347;48.780;9.158;2023-02-26T06:02:57;4.70;20.10
728;DHT22;347;48.780;9.158;2023-02-26T06:05:22;4.70;20.20
728;DHT22;347;48.780;9.158;2023-02-26T06:07:48;4.70;20.60
728;DHT22;347;48.780;9.158;2023-02-26T06:10:14;4.70;20.60
728;DHT22;347;48.780;9.158;2023-02-26T06:12:40;4.70;20.00
728;DHT22;347;48.780;9.158;2023-02-26T06:15:07;4.50;20.30
728;DHT22;347;48.780;9.158;2023-02-26T06:17:34;4.40;20.40
728;DHT22;347;48.780;9.158;2023-02-26T06:19:59;4.30;20.70
728;DHT22;347;48.780;9.158;2023-02-26T06:22:25;4.30;21.10
728;DHT22;347;48.780;9.158;2023-02-26T06:24:51;4.30;21.40
728;DHT22;347;48.780;9.158;2023-02-26T06:27:19;4.40;21.10
728;DHT22;347;48.780;9.158;2023-02-26T06:29:45;4.50;20.50
728;DHT22;347;48.780;9.158;2023-02-26T06:32:10;4.50;20.50
728;DHT22;347;48.780;9.158;2023-02-26T06:34:36;4.50;21.30
728;DHT22;347;48.780;9.158;2023-02-26T06:37:01;4.50;21.10
728;DHT22;347;48.780;9.158;2023-02-26T06:39:27;4.40;23.70
728;DHT22;347;48.780;9.158;2023-02-26T06:41:53;4.40;21.20
728;DHT22;347;48.780;9.158;2023-02-26T06:44:18;4.30;21.20
728;DHT22;347;48.780;9.158;2023-02-26T06:46:44;4.20;21.30
728;DHT22;347;48.780;9.158;2023-02-26T06:49:10;4.10;22.00
728;DHT22;347;48.780;9.158;2023-02-26T06:51:35;4.20;21.60
728;DHT22;347;48.780;9.158;2023-02-26T06:54:01;4.30;22.20
728;DHT22;347;48.780;9.158;2023-02-26T06:56:27;4.40;23.50
728;DHT22;347;48.780;9.158;2023-02-26T06:58:52;4.40;23.40
728;DHT22;347;48.780;9.158;2023-02-26T07:01:18;4.40;21.70
728;DHT22;347;48.780;9.158;2023-02-26T07:03:44;4.40;24.40
728;DHT22;347;48.780;9.158;2023-02-26T07:06:11;4.10;23.50
728;DHT22;347;48.780;9.158;2023-02-26T07:08:37;4.20;25.80
728;DHT22;347;48.780;9.158;2023-02-26T07:11:03;4.30;24.00
728;DHT22;347;48.780;9.158;2023-02-26T07:13:28;4.40;23.00
728;DHT22;347;48.780;9.158;2023-02-26T07:15:54;4.40;22.50
728;DHT22;347;48.780;9.158;2023-02-26T07:18:20;4.40;22.10
728;DHT22;347;48.780;9.158;2023-02-26T07:20:48;4.50;21.80
728;DHT22;347;48.780;9.158;2023-02-26T07:23:14;4.50;23.90
728;DHT22;347;48.780;9.158;2023-02-26T07:25:40;4.50;23.40
728;DHT22;347;48.780;9.158;2023-02-26T07:28:06;4.50;25.10
728;DHT22;347;48.780;9.158;2023-02-26T07:30:31;4.80;25.80
728;DHT22;347;48.780;9.158;2023-02-26T07:32:57;4.90;25.40
728;DHT22;347;48.780;9.158;2023-02-26T07:35:23;5.10;25.00
728;DHT22;347;48.780;9.158;2023-02-26T07:37:50;5.20;24.10
728;DHT22;347;48.780;9.158;2023-02-26T07:40:17;5.30;23.90
728;DHT22;347;48.780;9.158;2023-02-26T07:42:42;5.30;22.80
728;DHT22;347;48.780;9.158;2023-02-26T07:45:09;5.30;24.40
728;DHT22;347;48.780;9.158;2023-02-26T07:47:35;5.40;23.00
728;DHT22;347;48.780;9.158;2023-02-26T07:50:01;5.20;20.90
728;DHT22;347;48.780;9.158;2023-02-26T07:52:27;5.10;20.80
728;DHT22;347;48.780;9.158;2023-02-26T07:54:53;4.90;20.70
728;DHT22;347;48.780;9.158;2023-02-26T07:57:19;4.90;20.90
728;DHT22;347;48.780;9.158;2023-02-26T07:59:44;4.80;21.70
728;DHT22;347;48.780;9.158;2023-02-26T08:02:11;4.90;20.70
728;DHT22;347;48.780;9.158;2023-02-26T08:04:37;5.00;20.80
728;DHT22;347;48.780;9.158;2023-02-26T08:07:03;5.00;20.80
728;DHT22;347;48.780;9.158;2023-02-26T08:09:29;4.90;22.20
728;DHT22;347;48.780;9.158;2023-02-26T08:11:55;4.90;22.40
728;DHT22;347;48.780;9.158;2023-02-26T08:14:21;4.80;22.80
728;DHT22;347;48.780;9.158;2023-02-26T08:16:47;4.90;22.00
728;DHT22;347;48.780;9.158;2023-02-26T08:19:13;4.70;22.20
728;DHT22;347;48.780;9.158;2023-02-26T08:21:39;4.60;22.00
728;DHT22;347;48.780;9.158;2023-02-26T08:24:05;4.60;22.00
728;DHT22;347;48.780;9.158;2023-02-26T08:26:34;4.50;22.90
728;DHT22;347;48.780;9.158;2023-02-26T08:29:00;4.60;22.10
728;DHT22;347;48.780;9.158;2023-02-26T08:31:26;4.50;22.10
728;DHT22;347;48.780;9.158;2023-02-26T08:33:52;4.50;21.90
728;DHT22;347;48.780;9.158;2023-02-26T08:36:18;4.60;21.60
728;DHT22;347;48.780;9.158;2023-02-26T08:38:46;4.50;21.80
728;DHT22;347;48.780;9.158;2023-02-26T08:41:12;4.50;21.20
728;DHT22;347;48.780;9.158;2023-02-26T08:43:37;4.50;21.90
728;DHT22;347;48.780;9.158;2023-02-26T08:46:03;4.30;22.40
728;DHT22;347;48.780;9.158;2023-02-26T08:48:29;4.50;22.40
728;DHT22;347;48.780;9.158;2023-02-26T08:50:54;4.50;22.70
728;DHT22;347;48.780;9.158;2023-02-26T08:53:20;4.50;21.70
728;DHT22;347;48.780;9.158;2023-02-26T08:55:50;4.50;21.50
728;DHT22;347;48.780;9.158;2023-02-26T08:58:17;4.00;23.10
728;DHT22;347;48.780;9.158;2023-02-26T09:00:43;4.00;22.90
728;DHT22;347;48.780;9.158;2023-02-26T09:03:09;4.10;22.50
728;DHT22;347;48.780;9.158;2023-02-26T09:05:34;4.20;22.10
728;DHT22;347;48.780;9.158;2023-02-26T09:08:00;4.30;22.10
728;DHT22;347;48.780;9.158;2023-02-26T09:10:26;4.20;22.10
728;DHT22;347;48.780;9.158;2023-02-26T09:12:52;4.20;22.50
728;DHT22;347;48.780;9.158;2023-02-26T09:15:18;4.20;22.10
728;DHT22;347;48.780;9.158;2023-02-26T09:17:44;4.20;22.60
728;DHT22;347;48.780;9.158;2023-02-26T09:20:11;4.00;23.50
728;DHT22;347;48.780;9.158;2023-02-26T09:22:38;4.00;23.20
728;DHT22;347;48.780;9.158;2023-02-26T09:25:05;4.10;23.20
728;DHT22;347;48.780;9.158;2023-02-26T09:27:31;4.30;22.60
728;DHT22;347;48.780;9.158;2023-02-26T09:29:56;4.30;22.90
728;DHT22;347;48.780;9.158;2023-02-26T09:32:22;4.40;22.20
728;DHT22;347;48.780;9.158;2023-02-26T09:34:48;4.30;23.00
728;DHT22;347;48.780;9.158;2023-02-26T09:37:14;4.30;23.20
728;DHT22;347;48.780;9.158;2023-02-26T09:39:39;4.50;24.00
728;DHT22;347;48.780;9.158;2023-02-26T09:45:04;4.40;23.50
728;DHT22;347;48.780;9.158;2023-02-26T09:47:41;4.40;23.90
728;DHT22;347;48.780;9.158;2023-02-26T09:52:56;4.40;23.10
728;DHT22;347;48.780;9.158;2023-02-26T09:57:56;4.50;23.50
728;DHT22;347;48.780;9.158;2023-02-26T10:00:33;4.40;23.20
728;DHT22;347;48.780;9.158;2023-02-26T10:06:20;4.50;23.80
728;DHT22;347;48.780;9.158;2023-02-26T10:09:14;4.30;24.30
728;DHT22;347;48.780;9.158;2023-02-26T10:14:27;4.70;23.70
728;DHT22;347;48.780;9.158;2023-02-26T10:17:00;4.80;23.70
728;DHT22;347;48.780;9.158;2023-02-26T10:19:34;4.90;23.50
728;DHT22;347;48.780;9.158;2023-02-26T10:22:12;4.90;23.60
728;DHT22;347;48.780;9.158;2023-02-26T10:24:47;4.90;23.50
728;DHT22;347;48.780;9.158;2023-02-26T10:27:26;4.80;23.20
728;DHT22;347;48.780;9.158;2023-02-26T10:30:02;4.50;24.50
728;DHT22;347;48.780;9.158;2023-02-26T10:33:16;4.60;24.60
728;DHT22;347;48.780;9.158;2023-02-26T10:35:52;4.40;24.40
728;DHT22;347;48.780;9.158;2023-02-26T10:38:24;4.40;24.90
728;DHT22;347;48.780;9.158;2023-02-26T10:41:11;4.40;23.70
728;DHT22;347;48.780;9.158;2023-02-26T10:43:46;4.30;24.20
728;DHT22;347;48.780;9.158;2023-02-26T10:46:35;4.50;23.70
728;DHT22;347;48.780;9.158;2023-02-26T10:49:38;4.40;23.50
728;DHT22;347;48.780;9.158;2023-02-26T10:52:16;4.30;24.70
728;DHT22;347;48.780;9.158;2023-02-26T10:54:48;4.30;23.70
728;DHT22;347;48.780;9.158;2023-02-26T10:57:31;4.10;24.00
728;DHT22;347;48.780;9.158;2023-02-26T10:59:59;4.20;24.00
728;DHT22;347;48.780;9.158;2023-02-26T11:02:37;4.50;23.40
728;DHT22;347;48.780;9.158;2023-02-26T11:05:05;4.60;23.30
728;DHT22;347;48.780;9.158;2023-02-26T11:07:32;4.80;22.90
728;DHT22;347;48.780;9.158;2023-02-26T11:10:01;4.70;23.20
728;DHT22;347;48.780;9.158;2023-02-26T11:12:28;4.60;23.20
728;DHT22;347;48.780;9.158;2023-02-26T11:14:53;4.70;27.60
728;DHT22;347;48.780;9.158;2023-02-26T11:17:28;4.80;23.50
728;DHT22;347;48.780;9.158;2023-02-26T11:22:24;4.90;26.40
728;DHT22;347;48.780;9.158;2023-02-26T11:24:52;5.10;25.20
728;DHT22;347;48.780;9.158;2023-02-26T11:27:23;5.20;26.40
728;DHT22;347;48.780;9.158;2023-02-26T11:29:55;5.30;25.40
728;DHT22;347;48.780;9.158;2023-02-26T11:32:31;5.20;23.20
728;DHT22;347;48.780;9.158;2023-02-26T11:34:57;5.30;24.40
728;DHT22;347;48.780;9.158;2023-02-26T11:37:27;5.30;24.40
728;DHT22;347;48.780;9.158;2023-02-26T11:40:21;5.40;25.90
728;DHT22;347;48.780;9.158;2023-02-26T11:42:54;5.40;25.30
728;DHT22;347;48.780;9.158;2023-02-26T11:45:20;5.40;23.40
728;DHT22;347;48.780;9.158;2023-02-26T11:47:48;5.30;22.30
728;DHT22;347;48.780;9.158;2023-02-26T11:50:18;5.40;24.40
728;DHT22;347;48.780;9.158;2023-02-26T11:52:53;5.20;21.90
728;DHT22;347;48.780;9.158;2023-02-26T11:55:42;5.20;22.40
728;DHT22;347;48.780;9.158;2023-02-26T11:58:23;5.30;25.00
728;DHT22;347;48.780;9.158;2023-02-26T12:00:51;5.50;24.00
728;DHT22;347;48.780;9.158;2023-02-26T12:03:25;5.50;24.50
728;DHT22;347;48.780;9.158;2023-02-26T12:05:53;5.40;22.10
728;DHT22;347;48.780;9.158;2023-02-26T12:08:27;5.40;22.90
728;DHT22;347;48.780;9.158;2023-02-26T12:19:51;4.80;23.90
728;DHT22;347;48.780;9.158;2023-02-26T12:28:45;5.20;23.20
728;DHT22;347;48.780;9.158;2023-02-26T12:45:44;5.30;29.90
728;DHT22;347;48.780;9.158;2023-02-26T13:02:12;5.50;23.90
728;DHT22;347;48.780;9.158;2023-02-26T13:07:52;5.50;24.80
728;DHT22;347;48.780;9.158;2023-02-26T13:16:00;5.50;22.00
728;DHT22;347;48.780;9.158;2023-02-26T13:21:18;5.60;20.50
728;DHT22;347;48.780;9.158;2023-02-26T13:23:55;5.50;20.30
728;DHT22;347;48.780;9.158;2023-02-26T13:26:22;5.40;20.10
728;DHT22;347;48.780;9.158;2023-02-26T13:28:59;5.40;19.90
728;DHT22;347;48.780;9.158;2023-02-26T13:31:32;5.40;20.10
728;DHT22;347;48.780;9.158;2023-02-26T13:34:13;5.50;19.60
728;DHT22;347;48.780;9.158;2023-02-26T13:36:40;5.40;19.50
728;DHT22;347;48.780;9.158;2023-02-26T13:41:56;5.30;18.50
728;DHT22;347;48.780;9.158;2023-02-26T13:52:53;5.30;18.70
728;DHT22;347;48.780;9.158;2023-02-26T14:03:52;5.30;17.40
728;DHT22;347;48.780;9.158;2023-02-26T14:14:39;5.50;17.40
728;DHT22;347;48.780;9.158;2023-02-26T14:24:34;5.30;17.60
728;DHT22;347;48.780;9.158;2023-02-26T14:29:57;5.40;17.50
728;DHT22;347;48.780;9.158;2023-02-26T14:35:04;5.60;16.70
728;DHT22;347;48.780;9.158;2023-02-26T14:37:32;5.60;16.90
728;DHT22;347;48.780;9.158;2023-02-26T14:40:16;5.60;16.60
728;DHT22;347;48.780;9.158;2023-02-26T14:42:50;5.60;17.10
728;DHT22;347;48.780;9.158;2023-02-26T14:45:34;5.60;17.10
728;DHT22;347;48.780;9.158;2023-02-26T14:48:04;5.60;17.50
728;DHT22;347;48.780;9.158;2023-02-26T14:50:52;5.50;17.70
728;DHT22;347;48.780;9.158;2023-02-26T15:07:29;6.00;15.90
728;DHT22;347;48.780;9.158;2023-02-26T15:10:59;6.10;14.70
728;DHT22;347;48.780;9.158;2023-02-26T15:23:52;6.00;14.70
728;DHT22;347;48.780;9.158;2023-02-26T15:26:28;5.90;15.50
728;DHT22;347;48.780;9.158;2023-02-26T15:28:56;5.80;14.40
728;DHT22;347;48.780;9.158;2023-02-26T15:31:40;5.80;15.20
728;DHT22;347;48.780;9.158;2023-02-26T15:34:10;5.80;15.60
728;DHT22;347;48.780;9.158;2023-02-26T15:36:39;6.00;15.60
728;DHT22;347;48.780;9.158;2023-02-26T15:39:07;6.00;15.70
728;DHT22;347;48.780;9.158;2023-02-26T15:41:33;5.90;15.90
728;DHT22;347;48.780;9.158;2023-02-26T15:44:06;5.90;15.50
728;DHT22;347;48.780;9.158;2023-02-26T15:46:36;5.90;15.30
728;DHT22;347;48.780;9.158;2023-02-26T15:49:14;5.90;15.40
728;DHT22;347;48.780;9.158;2023-02-26T15:51:42;5.90;15.20
728;DHT22;347;48.780;9.158;2023-02-26T15:54:15;5.80;15.00
728;DHT22;347;48.780;9.158;2023-02-26T15:56:42;5.70;15.10
728;DHT22;347;48.780;9.158;2023-02-26T15:59:15;5.50;15.70
728;DHT22;347;48.780;9.158;2023-02-26T16:01:42;5.60;15.10
728;DHT22;347;48.780;9.158;2023-02-26T16:04:13;5.60;15.20
728;DHT22;347;48.780;9.158;2023-02-26T16:06:42;5.70;15.20
728;DHT22;347;48.780;9.158;2023-02-26T16:09:20;5.60;15.90
728;DHT22;347;48.780;9.158;2023-02-26T16:11:51;5.40;15.50
728;DHT22;347;48.780;9.158;2023-02-26T16:14:40;5.40;15.80
728;DHT22;347;48.780;9.158;2023-02-26T16:17:13;5.40;14.50
728;DHT22;347;48.780;9.158;2023-02-26T16:19:45;5.40;13.70
728;DHT22;347;48.780;9.158;2023-02-26T16:25:23;5.50;13.60
728;DHT22;347;48.780;9.158;2023-02-26T16:27:56;5.50;13.10
728;DHT22;347;48.780;9.158;2023-02-26T16:30:35;5.50;13.40
728;DHT22;347;48.780;9.158;2023-02-26T16:33:03;5.60;13.30
728;DHT22;347;48.780;9.158;2023-02-26T16:35:37;5.60;13.50
728;DHT22;347;48.780;9.158;2023-02-26T16:40:44;5.80;13.00
728;DHT22;347;48.780;9.158;2023-02-26T16:46:01;5.50;12.80
728;DHT22;347;48.780;9.158;2023-02-26T16:48:31;5.40;12.80
728;DHT22;347;48.780;9.158;2023-02-26T16:51:09;5.40;12.80
728;DHT22;347;48.780;9.158;2023-02-26T16:53:44;5.40;13.60
728;DHT22;347;48.780;9.158;2023-02-26T16:56:14;5.30;12.70
728;DHT22;347;48.780;9.158;2023-02-26T17:01:19;5.40;12.80
728;DHT22;347;48.780;9.158;2023-02-26T17:03:56;5.40;12.80
728;DHT22;347;48.780;9.158;2023-02-26T17:06:26;5.40;12.40
728;DHT22;347;48.780;9.158;2023-02-26T17:08:59;5.40;12.00
728;DHT22;347;48.780;9.158;2023-02-26T17:11:32;5.40;12.10
728;DHT22;347;48.780;9.158;2023-02-26T17:14:20;5.30;12.40
728;DHT22;347;48.780;9.158;2023-02-26T17:16:49;5.40;12.40
728;DHT22;347;48.780;9.158;2023-02-26T17:19:15;5.50;12.80
728;DHT22;347;48.780;9.158;2023-02-26T17:21:53;5.60;12.40
728;DHT22;347;48.780;9.158;2023-02-26T17:24:33;5.50;12.40
728;DHT22;347;48.780;9.158;2023-02-26T17:27:02;5.40;12.80
728;DHT22;347;48.780;9.158;2023-02-26T17:29:37;5.60;12.80
728;DHT22;347;48.780;9.158;2023-02-26T17:32:04;5.60;12.90
728;DHT22;347;48.780;9.158;2023-02-26T17:34:30;5.70;12.60
728;DHT22;347;48.780;9.158;2023-02-26T17:36:57;5.80;12.50
728;DHT22;347;48.780;9.158;2023-02-26T17:39:24;5.80;13.00
728;DHT22;347;48.780;9.158;2023-02-26T17:41:50;5.80;13.00
728;DHT22;347;48.780;9.158;2023-02-26T17:44:15;5.80;13.00
728;DHT22;347;48.780;9.158;2023-02-26T17:46:41;5.90;13.10
728;DHT22;347;48.780;9.158;2023-02-26T17:49:08;5.90;13.20
728;DHT22;347;48.780;9.158;2023-02-26T17:51:35;5.80;13.40
728;DHT22;347;48.780;9.158;2023-02-26T17:54:01;5.80;13.20
728;DHT22;347;48.780;9.158;2023-02-26T17:56:28;5.70;13.40
728;DHT22;347;48.780;9.158;2023-02-26T17:58:55;5.70;13.70
728;DHT22;347;48.780;9.158;2023-02-26T18:01:21;5.70;13.60
728;DHT22;347;48.780;9.158;2023-02-26T18:03:54;5.70;12.90
728;DHT22;347;48.780;9.158;2023-02-26T18:06:20;5.60;13.80
728;DHT22;347;48.780;9.158;2023-02-26T18:08:47;5.50;13.20
728;DHT22;347;48.780;9.158;2023-02-26T18:11:14;5.40;13.10
728;DHT22;347;48.780;9.158;2023-02-26T18:13:40;5.20;13.00
728;DHT22;347;48.780;9.158;2023-02-26T18:16:16;5.20;14.20
728;DHT22;347;48.780;9.158;2023-02-26T18:18:42;5.20;13.30
728;DHT22;347;48.780;9.158;2023-02-26T18:21:09;5.20;13.40
728;DHT22;347;48.780;9.158;2023-02-26T18:23:35;5.10;13.40
728;DHT22;347;48.780;9.158;2023-02-26T18:26:01;5.00;13.80
728;DHT22;347;48.780;9.158;2023-02-26T18:28:28;5.00;13.70
728;DHT22;347;48.780;9.158;2023-02-26T18:30:55;5.20;14.40
728;DHT22;347;48.780;9.158;2023-02-26T18:33:21;5.20;14.40
728;DHT22;347;48.780;9.158;2023-02-26T18:35:50;5.20;13.60
728;DHT22;347;48.780;9.158;2023-02-26T18:38:20;5.20;13.20
728;DHT22;347;48.780;9.158;2023-02-26T18:40:47;5.20;13.20
728;DHT22;347;48.780;9.158;2023-02-26T18:43:13;5.20;12.60
728;DHT22;347;48.780;9.158;2023-02-26T18:45:43;5.10;12.90
728;DHT22;347;48.780;9.158;2023-02-26T18:48:15;5.00;12.90
728;DHT22;347;48.780;9.158;2023-02-26T18:50:41;5.00;13.00
728;DHT22;347;48.780;9.158;2023-02-26T18:53:07;5.00;13.40
728;DHT22;347;48.780;9.158;2023-02-26T18:55:33;5.00;12.90
728;DHT22;347;48.780;9.158;2023-02-26T18:57:59;5.00;13.40
728;DHT22;347;48.780;9.158;2023-02-26T19:00:25;4.90;13.30
728;DHT22;347;48.780;9.158;2023-02-26T19:02:53;4.80;13.60
728;DHT22;347;48.780;9.158;2023-02-26T19:05:19;4.80;13.90
728;DHT22;347;48.780;9.158;2023-02-26T19:07:48;4.90;13.50
728;DHT22;347;48.780;9.158;2023-02-26T19:10:15;4.80;13.40
728;DHT22;347;48.780;9.158;2023-02-26T19:12:41;4.80;13.50
728;DHT22;347;48.780;9.158;2023-02-26T19:15:08;4.80;13.70
728;DHT22;347;48.780;9.158;2023-02-26T19:17:34;4.90;13.60
728;DHT22;347;48.780;9.158;2023-02-26T19:20:00;4.90;13.80
728;DHT22;347;48.780;9.158;2023-02-26T19:22:26;4.80;13.90
728;DHT22;347;48.780;9.158;2023-02-26T19:24:51;4.80;13.90
728;DHT22;347;48.780;9.158;2023-02-26T19:27:19;4.90;13.40
728;DHT22;347;48.780;9.158;2023-02-26T19:29:45;5.00;13.80
728;DHT22;347;48.780;9.158;2023-02-26T19:32:11;5.10;13.60
728;DHT22;347;48.780;9.158;2023-02-26T19:34:37;5.00;13.60
728;DHT22;347;48.780;9.158;2023-02-26T19:37:03;5.00;13.10
728;DHT22;347;48.780;9.158;2023-02-26T19:39:29;4.90;13.60
728;DHT22;347;48.780;9.158;2023-02-26T19:41:56;4.90;13.40
728;DHT22;347;48.780;9.158;2023-02-26T19:44:23;4.80;13.90
728;DHT22;347;48.780;9.158;2023-02-26T19:46:49;4.90;13.70
728;DHT22;347;48.780;9.158;2023-02-26T19:49:16;4.80;13.90
728;DHT22;347;48.780;9.158;2023-02-26T19:51:42;4.70;14.00
728;DHT22;347;48.780;9.158;2023-02-26T19:54:09;4.80;14.00
728;DHT22;347;48.780;9.158;2023-02-26T19:56:37;4.90;14.00
728;DHT22;347;48.780;9.158;2023-02-26T19:59:02;5.00;14.00
728;DHT22;347;48.780;9.158;2023-02-26T20:01:28;5.00;13.70
728;DHT22;347;48.780;9.158;2023-02-26T20:03:54;5.10;13.60
728;DHT22;347;48.780;9.158;2023-02-26T20:06:20;5.00;13.70
728;DHT22;347;48.780;9.158;2023-02-26T20:08:46;4.90;13.70
728;DHT22;347;48.780;9.158;2023-02-26T20:11:12;4.90;14.10
728;DHT22;347;48.780;9.158;2023-02-26T20:13:38;4.90;14.50
728;DHT22;347;48.780;9.158;2023-02-26T20:16:06;4.90;14.20
728;DHT22;347;48.780;9.158;2023-02-26T20:18:33;5.00;13.90
728;DHT22;347;48.780;9.158;2023-02-26T20:21:02;4.90;13.90
728;DHT22;347;48.780;9.158;2023-02-26T20:23:29;4.70;14.50
728;DHT22;347;48.780;9.158;2023-02-26T20:25:59;4.80;14.60
728;DHT22;347;48.780;9.158;2023-02-26T20:28:25;4.80;14.50
728;DHT22;347;48.780;9.158;2023-02-26T20:30:51;4.70;14.60
728;DHT22;347;48.780;9.158;2023-02-26T20:33:17;4.60;15.20
728;DHT22;347;48.780;9.158;2023-02-26T20:35:43;4.70;14.90
728;DHT22;347;48.780;9.158;2023-02-26T20:38:15;4.80;14.50
728;DHT22;347;48.780;9.158;2023-02-26T20:40:41;4.90;14.50
728;DHT22;347;48.780;9.158;2023-02-26T20:43:07;4.70;14.90
728;DHT22;347;48.780;9.158;2023-02-26T20:45:34;4.40;15.20